createdAt,value
2022-12-01T00:01:21.297Z,88.48
2022-12-01T00:03:48.349Z,88.13
2022-12-01T00:06:20.406Z,89.26
2022-12-01T00:09:25.742Z,89.30
2022-12-01T00:11:53.978Z,89.10
2022-12-01T00:14:20.734Z,88.92
2022-12-01T00:16:47.646Z,89.67
2022-12-01T00:19:14.596Z,91.02
2022-12-01T00:21:41.333Z,91.11
2022-12-01T00:24:10.007Z,90.38
2022-12-01T00:26:38.425Z,89.85
2022-12-01T00:29:05.893Z,90.03
2022-12-01T00:31:33.376Z,90.21
2022-12-01T00:34:00.643Z,90.50
2022-12-01T00:36:27.486Z,90.92
2022-12-01T00:38:55.800Z,90.73
2022-12-01T00:41:24.601Z,90.97
2022-12-01T00:43:51.689Z,90.89
2022-12-01T00:46:19.944Z,90.68
2022-12-01T00:48:47.501Z,90.47
2022-12-01T00:51:14.316Z,89.73
2022-12-01T00:53:41.078Z,88.40
2022-12-01T00:56:07.774Z,87.89
2022-12-01T00:58:34.553Z,87.87
2022-12-01T01:01:01.835Z,88.20
2022-12-01T01:03:30.067Z,88.89
2022-12-01T01:06:08.177Z,88.53
2022-12-01T01:08:35.926Z,89.67
2022-12-01T01:11:04.547Z,89.01
2022-12-01T01:13:31.906Z,88.03
2022-12-01T01:16:14.277Z,88.61
2022-12-01T01:18:41.212Z,88.66
2022-12-01T01:21:12.132Z,89.25
2022-12-01T01:23:39.260Z,89.92
2022-12-01T01:26:13.041Z,90.78
2022-12-01T01:28:41.077Z,90.75
2022-12-01T01:31:13.391Z,90.01
2022-12-01T01:33:40.739Z,89.70
2022-12-01T01:36:08.451Z,89.06
2022-12-01T01:38:35.859Z,89.32
2022-12-01T01:41:04.490Z,89.40
2022-12-01T01:43:49.337Z,90.12
2022-12-01T01:46:21.657Z,90.23
2022-12-01T01:49:08.249Z,91.46
2022-12-01T01:51:40.670Z,92.09
2022-12-01T01:54:19.786Z,92.28
2022-12-01T01:56:49.715Z,92.29
2022-12-01T01:59:23.746Z,91.86
2022-12-01T02:01:59.866Z,91.07
2022-12-01T02:04:28.405Z,90.31
2022-12-01T02:06:55.345Z,89.73
2022-12-01T02:09:22.067Z,88.56
2022-12-01T02:12:12.082Z,89.04
2022-12-01T02:15:06.168Z,88.80
2022-12-01T02:18:09.256Z,89.03
2022-12-01T02:21:13.421Z,89.05
2022-12-01T02:24:17.653Z,89.16
2022-12-01T02:26:53.905Z,88.96
2022-12-01T02:29:51.898Z,88.85
2022-12-01T02:32:30.124Z,87.99
2022-12-01T02:34:56.948Z,87.68
2022-12-01T02:37:33.066Z,87.63
2022-12-01T02:40:19.925Z,88.05
2022-12-01T02:43:01.644Z,87.26
2022-12-01T02:45:52.048Z,87.49
2022-12-01T02:48:31.205Z,87.17
2022-12-01T02:51:06.891Z,87.99
2022-12-01T02:53:34.092Z,88.57
2022-12-01T02:56:04.577Z,88.84
2022-12-01T02:58:31.337Z,89.59
2022-12-01T03:01:17.738Z,89.81
2022-12-01T03:04:21.301Z,89.48
2022-12-01T03:07:06.331Z,89.01
2022-12-01T03:09:49.044Z,89.17
2022-12-01T03:12:28.639Z,88.55
2022-12-01T03:15:02.939Z,87.93
2022-12-01T03:17:44.340Z,88.50
2022-12-01T03:20:36.960Z,88.04
2022-12-01T03:23:28.167Z,87.83
2022-12-01T03:25:57.320Z,87.99
2022-12-01T03:28:30.359Z,88.21
2022-12-01T03:31:03.717Z,88.44
2022-12-01T03:33:37.987Z,88.37
2022-12-01T03:36:20.145Z,88.45
2022-12-01T03:38:54.398Z,87.66
2022-12-01T03:41:29.276Z,87.78
2022-12-01T03:44:05.585Z,87.71
2022-12-01T03:46:46.863Z,87.54
2022-12-01T03:49:16.492Z,87.66
2022-12-01T03:52:02.719Z,87.93
2022-12-01T03:54:44.774Z,87.88
2022-12-01T03:57:18.228Z,87.47
2022-12-01T03:59:45.668Z,88.45
2022-12-01T04:02:12.998Z,89.23
2022-12-01T04:04:39.789Z,89.55
2022-12-01T04:07:06.596Z,89.88
2022-12-01T04:09:33.317Z,90.29
2022-12-01T04:12:18.749Z,89.90
2022-12-01T04:14:45.504Z,89.86
2022-12-01T04:17:12.381Z,90.32
2022-12-01T04:19:39.166Z,90.38
2022-12-01T04:22:05.947Z,90.19
2022-12-01T04:24:32.781Z,90.25
2022-12-01T04:26:59.537Z,90.61
2022-12-01T04:29:26.270Z,90.16
2022-12-01T04:31:53.233Z,89.28
2022-12-01T04:34:20.105Z,89.43
2022-12-01T04:36:47.205Z,89.05
2022-12-01T04:39:14.255Z,89.77
2022-12-01T04:41:40.981Z,89.55
2022-12-01T04:44:10.133Z,89.51
2022-12-01T04:46:37.400Z,88.61
2022-12-01T04:49:05.018Z,87.64
2022-12-01T04:51:31.895Z,87.00
2022-12-01T04:53:58.887Z,87.41
2022-12-01T04:56:25.695Z,87.56
2022-12-01T04:58:52.564Z,87.65
2022-12-01T05:01:19.560Z,87.44
2022-12-01T05:03:50.450Z,87.95
2022-12-01T05:06:26.325Z,88.05
2022-12-01T05:08:58.492Z,87.74
2022-12-01T05:11:26.644Z,87.30
2022-12-01T05:13:53.370Z,87.21
2022-12-01T05:16:25.903Z,87.94
2022-12-01T05:19:14.562Z,88.54
2022-12-01T05:21:42.725Z,88.99
2022-12-01T05:24:11.355Z,88.59
2022-12-01T05:26:38.555Z,88.35
2022-12-01T05:29:05.572Z,87.81
2022-12-01T05:31:32.727Z,87.65
2022-12-01T05:33:59.894Z,87.31
2022-12-01T05:36:27.029Z,87.70
2022-12-01T05:38:54.160Z,87.70
2022-12-01T05:41:21.222Z,88.90
2022-12-01T05:43:47.996Z,90.69
2022-12-01T05:46:15.055Z,91.92
2022-12-01T05:48:42.431Z,92.54
2022-12-01T05:51:15.467Z,90.34
2022-12-01T05:53:43.102Z,89.99
2022-12-01T05:56:10.117Z,88.21
2022-12-01T05:58:37.202Z,88.04
2022-12-01T06:01:04.175Z,89.20
2022-12-01T06:03:31.185Z,90.47
2022-12-01T06:05:57.835Z,90.67
2022-12-01T06:08:24.684Z,90.66
2022-12-01T06:10:51.426Z,90.31
2022-12-01T06:13:18.154Z,90.40
2022-12-01T06:15:44.937Z,89.90
2022-12-01T06:18:11.809Z,89.81
2022-12-01T06:20:38.563Z,89.48
2022-12-01T06:23:05.464Z,88.44
2022-12-01T06:25:32.169Z,88.22
2022-12-01T06:27:59.128Z,88.74
2022-12-01T06:30:26.156Z,86.91
2022-12-01T06:32:53.031Z,82.48
2022-12-01T06:35:19.901Z,79.60
2022-12-01T06:37:46.788Z,78.49
2022-12-01T06:40:13.955Z,77.29
2022-12-01T06:42:40.818Z,76.07
2022-12-01T06:45:10.177Z,73.49
2022-12-01T06:47:37.606Z,74.33
2022-12-01T06:50:07.631Z,75.07
2022-12-01T06:52:35.886Z,75.82
2022-12-01T06:55:03.882Z,74.61
2022-12-01T06:57:31.353Z,72.08
2022-12-01T06:59:58.200Z,69.11
2022-12-01T07:02:25.472Z,68.86
2022-12-01T07:04:52.298Z,69.55
2022-12-01T07:07:19.058Z,66.24
2022-12-01T07:09:45.955Z,64.38
2022-12-01T07:12:12.794Z,62.82
2022-12-01T07:14:43.120Z,61.10
2022-12-01T07:17:09.964Z,60.00
2022-12-01T07:19:36.989Z,59.59
2022-12-01T07:22:03.801Z,60.38
2022-12-01T07:24:30.811Z,59.09
2022-12-01T07:26:57.616Z,57.06
2022-12-01T07:29:24.372Z,56.08
2022-12-01T07:31:51.125Z,56.40
2022-12-01T07:34:17.874Z,56.31
2022-12-01T07:36:44.748Z,54.56
2022-12-01T07:39:11.469Z,52.49
2022-12-01T07:41:38.385Z,51.54
2022-12-01T07:44:05.142Z,51.91
2022-12-01T07:46:32.174Z,49.81
2022-12-01T07:48:59.791Z,49.09
2022-12-01T07:51:28.464Z,47.62
2022-12-01T07:53:55.474Z,46.83
2022-12-01T07:56:22.716Z,44.51
2022-12-01T07:58:49.810Z,44.07
2022-12-01T08:01:21.795Z,43.26
2022-12-01T08:03:51.295Z,42.03
2022-12-01T08:06:19.157Z,41.55
2022-12-01T08:08:47.023Z,41.09
2022-12-01T08:11:31.198Z,40.65
2022-12-01T08:13:58.093Z,39.42
2022-12-01T08:16:25.700Z,39.17
2022-12-01T08:18:53.189Z,38.49
2022-12-01T08:21:23.489Z,37.73
2022-12-01T08:23:54.931Z,36.90
2022-12-01T08:26:23.627Z,34.23
2022-12-01T08:28:57.434Z,33.34
2022-12-01T08:31:26.194Z,31.76
2022-12-01T08:33:54.179Z,30.24
2022-12-01T08:36:21.948Z,29.76
2022-12-01T08:38:52.085Z,30.26
2022-12-01T08:41:20.201Z,29.30
2022-12-01T08:43:57.914Z,28.93
2022-12-01T08:46:31.703Z,28.44
2022-12-01T08:48:58.877Z,28.71
2022-12-01T08:51:26.372Z,27.89
2022-12-01T08:53:55.475Z,28.08
2022-12-01T08:56:35.824Z,27.48
2022-12-01T08:59:03.410Z,27.69
2022-12-01T09:01:32.245Z,28.02
2022-12-01T09:04:10.185Z,28.60
2022-12-01T09:06:42.318Z,28.14
2022-12-01T09:09:11.290Z,27.15
2022-12-01T09:11:38.752Z,27.13
2022-12-01T09:14:05.712Z,27.11
2022-12-01T09:16:32.752Z,26.71
2022-12-01T09:19:01.581Z,26.50
2022-12-01T09:21:30.659Z,26.53
2022-12-01T09:23:58.727Z,26.58
2022-12-01T09:26:26.152Z,26.30
2022-12-01T09:29:05.820Z,26.89
2022-12-01T09:31:33.596Z,27.91
2022-12-01T09:34:06.064Z,29.14
2022-12-01T09:36:35.302Z,29.96
2022-12-01T09:39:03.026Z,28.71
2022-12-01T09:41:35.182Z,27.76
2022-12-01T09:44:33.737Z,27.66
2022-12-01T09:47:26.786Z,26.52
2022-12-01T09:49:59.942Z,25.69
2022-12-01T09:52:33.118Z,25.82
2022-12-01T09:55:00.739Z,25.20
2022-12-01T09:57:34.646Z,26.00
2022-12-01T10:00:18.229Z,26.41
2022-12-01T10:03:02.565Z,26.10
2022-12-01T10:06:18.565Z,26.26
2022-12-01T10:08:38.850Z,25.82
2022-12-01T10:11:23.983Z,24.81
2022-12-01T10:13:51.237Z,24.28
2022-12-01T10:16:26.043Z,24.26
2022-12-01T10:19:00.987Z,25.03
2022-12-01T10:21:46.587Z,24.52
2022-12-01T10:24:20.943Z,23.75
2022-12-01T10:27:02.802Z,23.17
2022-12-01T10:29:46.399Z,23.33
2022-12-01T10:32:32.142Z,24.10
2022-12-01T10:34:58.789Z,26.06
2022-12-01T10:37:28.262Z,28.48
2022-12-01T10:39:57.204Z,29.10
2022-12-01T10:42:39.105Z,29.73
2022-12-01T10:45:15.205Z,30.85
2022-12-01T10:48:18.143Z,30.98
2022-12-01T10:50:56.924Z,32.82
2022-12-01T10:53:23.815Z,33.99
2022-12-01T10:56:04.291Z,34.95
2022-12-01T10:58:41.177Z,35.74
2022-12-01T11:01:16.405Z,35.85
2022-12-01T11:03:43.641Z,36.96
2022-12-01T11:06:13.094Z,37.87
2022-12-01T11:08:52.424Z,38.40
2022-12-01T11:11:46.059Z,38.27
2022-12-01T11:14:23.341Z,37.55
2022-12-01T11:16:53.484Z,36.12
2022-12-01T11:19:33.569Z,35.03
2022-12-01T11:22:28.730Z,33.72
2022-12-01T11:25:00.186Z,32.02
2022-12-01T11:27:50.429Z,31.00
2022-12-01T11:30:24.196Z,30.66
2022-12-01T11:32:54.301Z,30.58
2022-12-01T11:35:24.462Z,30.30
2022-12-01T11:40:57.564Z,30.54
2022-12-01T11:43:38.356Z,30.56
2022-12-01T11:46:07.559Z,31.10
2022-12-01T11:48:35.957Z,32.11
2022-12-01T11:51:08.747Z,32.89
2022-12-01T11:53:38.503Z,34.49
2022-12-01T11:56:28.164Z,35.73
2022-12-01T11:59:02.959Z,36.78
2022-12-01T12:02:04.112Z,37.60
2022-12-01T12:04:54.867Z,38.99
2022-12-01T12:07:39.023Z,40.14
2022-12-01T12:10:34.033Z,40.90
2022-12-01T12:13:16.333Z,42.32
2022-12-01T12:16:10.353Z,43.24
2022-12-01T12:19:01.674Z,44.70
2022-12-01T12:21:40.798Z,44.44
2022-12-01T12:24:07.569Z,45.42
2022-12-01T12:27:12.157Z,45.97
2022-12-01T12:29:59.678Z,46.87
2022-12-01T12:32:26.469Z,48.02
2022-12-01T12:35:27.862Z,47.83
2022-12-01T12:38:22.223Z,49.01
2022-12-01T12:41:23.102Z,48.55
2022-12-01T12:44:01.910Z,49.07
2022-12-01T12:46:37.489Z,49.79
2022-12-01T12:49:43.474Z,50.09
2022-12-01T12:52:16.939Z,50.66
2022-12-01T12:54:51.098Z,50.98
2022-12-01T12:57:29.958Z,51.72
2022-12-01T13:00:11.845Z,52.34
2022-12-01T13:02:47.976Z,52.73
2022-12-01T13:05:38.363Z,53.05
2022-12-01T13:08:18.960Z,53.71
2022-12-01T13:10:45.770Z,54.00
2022-12-01T13:13:23.610Z,54.42
2022-12-01T13:15:53.533Z,54.93
2022-12-01T13:18:34.195Z,55.56
2022-12-01T13:21:03.875Z,55.61
2022-12-01T13:23:37.097Z,56.78
2022-12-01T13:26:07.946Z,56.86
2022-12-01T13:28:40.717Z,57.44
2022-12-01T13:31:13.622Z,57.87
2022-12-01T13:34:02.413Z,58.39
2022-12-01T13:36:46.583Z,59.18
2022-12-01T13:39:27.271Z,59.16
2022-12-01T13:42:06.213Z,59.45
2022-12-01T13:44:33.065Z,59.62
2022-12-01T13:47:24.352Z,59.29
2022-12-01T13:49:52.727Z,60.01
2022-12-01T13:52:22.387Z,59.75
2022-12-01T13:55:07.514Z,60.95
2022-12-01T13:57:43.654Z,61.13
2022-12-01T14:00:24.816Z,60.29
2022-12-01T14:03:18.671Z,60.62
2022-12-01T14:06:05.070Z,61.23
2022-12-01T14:09:04.117Z,61.63
2022-12-01T14:11:33.178Z,62.10
2022-12-01T14:14:11.022Z,62.63
2022-12-01T14:16:58.624Z,63.41
2022-12-01T14:19:46.477Z,63.18
2022-12-01T14:22:36.617Z,64.12
2022-12-01T14:25:29.922Z,65.04
2022-12-01T14:28:01.095Z,66.13
2022-12-01T14:30:45.940Z,65.96
2022-12-01T14:33:45.907Z,65.95
2022-12-01T14:36:18.574Z,66.84
2022-12-01T14:38:46.684Z,68.17
2022-12-01T14:41:24.398Z,69.07
2022-12-01T14:44:03.493Z,69.46
2022-12-01T14:46:59.093Z,69.88
2022-12-01T14:49:32.939Z,69.18
2022-12-01T14:52:06.777Z,69.92
2022-12-01T14:54:43.310Z,70.23
2022-12-01T14:57:16.537Z,71.17
2022-12-01T14:59:44.280Z,71.10
2022-12-01T15:02:11.991Z,71.44
2022-12-01T15:05:15.341Z,71.27
2022-12-01T15:07:47.038Z,71.30
2022-12-01T15:10:34.512Z,71.55
2022-12-01T15:13:22.278Z,71.90
2022-12-01T15:15:57.665Z,73.09
2022-12-01T15:18:36.206Z,73.03
2022-12-01T15:21:06.436Z,73.14
2022-12-01T15:23:33.646Z,73.87
2022-12-01T15:26:00.421Z,74.16
2022-12-01T15:28:31.736Z,74.26
2022-12-01T15:31:00.081Z,74.17
2022-12-01T15:33:36.566Z,74.65
2022-12-01T15:36:06.707Z,74.58
2022-12-01T15:38:37.283Z,74.42
2022-12-01T15:43:56.155Z,75.22
2022-12-01T15:46:32.167Z,75.32
2022-12-01T15:49:32.209Z,74.51
2022-12-01T15:52:11.805Z,74.67
2022-12-01T15:54:39.304Z,75.23
2022-12-01T15:57:06.701Z,75.09
2022-12-01T15:59:44.017Z,74.75
2022-12-01T16:02:20.454Z,75.40
2022-12-01T16:04:49.208Z,75.58
2022-12-01T16:07:16.374Z,75.93
2022-12-01T16:09:56.292Z,75.64
2022-12-01T16:12:28.574Z,76.11
2022-12-01T16:15:18.015Z,76.58
2022-12-01T16:17:50.910Z,77.47
2022-12-01T16:20:38.788Z,77.73
2022-12-01T16:23:18.787Z,77.74
2022-12-01T16:25:47.987Z,78.25
2022-12-01T16:28:24.431Z,78.06
2022-12-01T16:30:52.234Z,78.07
2022-12-01T16:33:23.470Z,78.46
2022-12-01T16:35:51.749Z,78.46
2022-12-01T16:38:24.162Z,78.72
2022-12-01T16:40:53.964Z,78.51
2022-12-01T16:43:23.383Z,78.06
2022-12-01T16:45:57.358Z,77.86
2022-12-01T16:48:24.264Z,77.87
2022-12-01T16:50:52.733Z,77.67
2022-12-01T16:53:20.893Z,78.06
2022-12-01T16:55:52.625Z,78.17
2022-12-01T16:58:19.794Z,78.75
2022-12-01T17:00:52.048Z,78.89
2022-12-01T17:03:24.193Z,78.41
2022-12-01T17:05:52.413Z,78.68
2022-12-01T17:08:20.351Z,78.58
2022-12-01T17:10:50.520Z,78.43
2022-12-01T17:13:19.378Z,78.57
2022-12-01T17:15:49.136Z,79.29
2022-12-01T17:18:18.433Z,78.93
2022-12-01T17:20:56.980Z,79.57
2022-12-01T17:23:23.855Z,80.03
2022-12-01T17:25:50.619Z,80.32
2022-12-01T17:28:17.620Z,80.38
2022-12-01T17:30:44.449Z,80.31
2022-12-01T17:33:11.845Z,80.44
2022-12-01T17:35:38.980Z,81.15
2022-12-01T17:38:06.299Z,80.80
2022-12-01T17:40:33.104Z,80.65
2022-12-01T17:43:00.350Z,80.47
2022-12-01T17:45:27.073Z,80.08
2022-12-01T17:47:54.719Z,79.91
2022-12-01T17:50:21.423Z,79.49
2022-12-01T17:52:48.206Z,79.10
2022-12-01T17:55:15.160Z,79.12
2022-12-01T17:57:41.946Z,79.13
2022-12-01T18:00:09.955Z,79.07
2022-12-01T18:02:38.080Z,79.19
2022-12-01T18:05:05.684Z,80.06
2022-12-01T18:07:32.476Z,80.46
2022-12-01T18:09:59.370Z,80.36
2022-12-01T18:12:26.129Z,80.83
2022-12-01T18:14:52.913Z,80.50
2022-12-01T18:17:19.740Z,80.24
2022-12-01T18:19:46.464Z,80.53
2022-12-01T18:22:13.164Z,80.88
2022-12-01T18:24:40.230Z,80.93
2022-12-01T18:27:06.953Z,80.75
2022-12-01T18:29:34.374Z,80.68
2022-12-01T18:32:01.092Z,80.43
2022-12-01T18:34:31.253Z,80.61
2022-12-01T18:36:59.920Z,81.14
2022-12-01T18:39:26.737Z,82.07
2022-12-01T18:41:53.900Z,81.75
2022-12-01T18:44:20.633Z,81.83
2022-12-01T18:46:47.462Z,81.68
2022-12-01T18:49:14.682Z,81.61
2022-12-01T18:51:41.514Z,81.16
2022-12-01T18:54:12.499Z,81.30
2022-12-01T18:56:39.368Z,81.48
2022-12-01T18:59:09.593Z,81.26
2022-12-01T19:01:40.199Z,81.18
2022-12-01T19:04:08.120Z,81.51
2022-12-01T19:06:37.505Z,81.67
2022-12-01T19:09:06.282Z,81.37
2022-12-01T19:11:33.160Z,81.69
2022-12-01T19:14:00.229Z,82.11
2022-12-01T19:16:27.400Z,81.79
2022-12-01T19:18:54.473Z,81.89
2022-12-01T19:21:21.503Z,82.10
2022-12-01T19:23:49.500Z,82.29
2022-12-01T19:26:19.514Z,82.38
2022-12-01T19:28:47.258Z,82.31
2022-12-01T19:31:20.444Z,82.19
2022-12-01T19:33:47.166Z,81.52
2022-12-01T19:36:17.447Z,81.14
2022-12-01T19:38:44.580Z,81.70
2022-12-01T19:41:12.529Z,81.64
2022-12-01T19:43:42.196Z,81.44
2022-12-01T19:46:19.119Z,81.27
2022-12-01T19:48:47.077Z,81.65
2022-12-01T19:51:23.946Z,81.96
2022-12-01T19:53:52.168Z,81.86
2022-12-01T19:56:19.873Z,81.88
2022-12-01T19:58:46.717Z,81.96
2022-12-01T20:01:15.753Z,82.01
2022-12-01T20:03:46.406Z,81.97
2022-12-01T20:06:16.179Z,81.91
2022-12-01T20:08:44.240Z,81.51
2022-12-01T20:11:12.304Z,81.70
2022-12-01T20:13:41.291Z,81.27
2022-12-01T20:16:14.631Z,81.49
2022-12-01T20:18:41.987Z,81.30
2022-12-01T20:21:15.971Z,81.16
2022-12-01T20:23:44.456Z,81.40
2022-12-01T20:26:11.593Z,81.15
2022-12-01T20:28:39.750Z,80.79
2022-12-01T20:31:16.370Z,80.96
2022-12-01T20:33:43.180Z,80.94
2022-12-01T20:36:10.862Z,81.08
2022-12-01T20:38:38.120Z,81.11
2022-12-01T20:41:05.246Z,81.50
2022-12-01T20:43:32.983Z,81.60
2022-12-01T20:46:00.950Z,81.74
2022-12-01T20:48:28.289Z,81.65
2022-12-01T20:50:55.192Z,81.28
2022-12-01T20:53:22.292Z,81.04
2022-12-01T20:55:49.165Z,81.20
2022-12-01T20:58:15.932Z,81.39
2022-12-01T21:00:45.625Z,81.43
2022-12-01T21:03:13.600Z,81.51
2022-12-01T21:05:43.434Z,81.71
2022-12-01T21:08:12.491Z,82.00
2022-12-01T21:10:44.284Z,81.98
2022-12-01T21:13:37.054Z,81.87
2022-12-01T21:16:09.584Z,82.21
2022-12-01T21:19:01.110Z,82.15
2022-12-01T21:21:30.951Z,82.11
2022-12-01T21:24:09.753Z,82.12
2022-12-01T21:26:38.262Z,82.12
2022-12-01T21:29:24.307Z,82.24
2022-12-01T21:31:54.263Z,82.01
2022-12-01T21:34:23.742Z,82.10
2022-12-01T21:36:53.529Z,82.34
2022-12-01T21:39:22.924Z,82.59
2022-12-01T21:41:52.700Z,82.52
2022-12-01T21:44:35.729Z,82.30
2022-12-01T21:47:30.565Z,82.32
2022-12-01T21:49:59.240Z,82.69
2022-12-01T21:52:32.688Z,82.89
2022-12-01T21:55:32.762Z,82.79
2022-12-01T21:57:59.797Z,82.40
2022-12-01T22:00:26.768Z,82.15
2022-12-01T22:03:08.983Z,82.06
2022-12-01T22:05:37.383Z,82.07
2022-12-01T22:08:39.437Z,82.26
2022-12-01T22:11:18.105Z,83.31
2022-12-01T22:14:15.156Z,83.59
2022-12-01T22:16:44.552Z,83.49
2022-12-01T22:19:14.252Z,83.98
2022-12-01T22:21:44.824Z,84.05
2022-12-01T22:24:38.588Z,83.54
2022-12-01T22:27:26.091Z,83.39
2022-12-01T22:30:01.693Z,83.74
2022-12-01T22:32:34.548Z,84.14
2022-12-01T22:35:29.083Z,84.37
2022-12-01T22:38:00.705Z,84.50
2022-12-01T22:40:38.288Z,84.45
2022-12-01T22:43:17.256Z,84.35
2022-12-01T22:45:48.513Z,84.86
2022-12-01T22:48:27.915Z,85.02
2022-12-01T22:50:56.168Z,84.64
2022-12-01T22:53:29.714Z,84.18
2022-12-01T22:56:00.204Z,83.98
2022-12-01T22:58:34.462Z,83.61
2022-12-01T23:01:31.489Z,83.38
2022-12-01T23:04:30.570Z,83.38
2022-12-01T23:06:58.839Z,83.37
2022-12-01T23:09:45.038Z,83.69
2022-12-01T23:12:26.537Z,83.46
2022-12-01T23:15:16.666Z,83.64
2022-12-01T23:17:43.412Z,83.88
2022-12-01T23:20:10.137Z,84.20
2022-12-01T23:22:37.916Z,83.89
2022-12-01T23:25:18.286Z,83.73
2022-12-01T23:27:47.679Z,83.47
2022-12-01T23:30:16.872Z,83.35
2022-12-01T23:32:45.753Z,83.28
2022-12-01T23:35:17.478Z,83.39
2022-12-01T23:37:47.624Z,83.34
2022-12-01T23:40:28.553Z,83.38
2022-12-01T23:43:02.962Z,83.41
2022-12-01T23:45:31.588Z,83.19
2022-12-01T23:47:58.326Z,82.93
2022-12-01T23:50:26.274Z,83.11
2022-12-01T23:52:53.396Z,83.63
2022-12-01T23:55:26.916Z,83.81
2022-12-01T23:57:54.790Z,83.53
